sensor_id;sensor_type;location;lat;lon;timestamp;pressure;altitude;pressure_sealevel;temperature;humidity
25130;BME280;13308;50.860;13.664;2023-02-19T07:07:28;96452.88;;;7.78;100.00
25130;BME280;13308;50.860;13.664;2023-02-19T07:09:54;96470.13;;;7.78;100.00
25130;BME280;13308;50.860;13.664;2023-02-19T07:12:19;96475.66;;;7.75;100.00
25130;BME280;13308;50.860;13.664;2023-02-19T07:14:44;96474.06;;;7.77;100.00
25130;BME280;13308;50.860;13.664;2023-02-19T07:17:10;96473.28;;;7.77;100.00
25130;BME280;13308;50.860;13.664;2023-02-19T07:19:35;96467.78;;;7.77;100.00
25130;BME280;13308;50.860;13.664;2023-02-19T07:22:00;96468.56;;;7.77;100.00
25130;BME280;13308;50.860;13.664;2023-02-19T07:24:26;96474.34;;;7.86;100.00
25130;BME280;13308;50.860;13.664;2023-02-19T07:26:51;96469.19;;;7.92;100.00
25130;BME280;13308;50.860;13.664;2023-02-19T07:29:16;96470.75;;;7.93;100.00
25130;BME280;13308;50.860;13.664;2023-02-19T07:31:42;96461.31;;;7.94;100.00
25130;BME280;13308;50.860;13.664;2023-02-19T07:34:07;96463.72;;;7.92;100.00
25130;BME280;13308;50.860;13.664;2023-02-19T07:36:33;96465.97;;;7.97;100.00
25130;BME280;13308;50.860;13.664;2023-02-19T07:38:59;96467.56;;;7.94;100.00
25130;BME280;13308;50.860;13.664;2023-02-19T07:41:25;96474.59;;;7.99;100.00
25130;BME280;13308;50.860;13.664;2023-02-19T07:43:54;96463.19;;;8.00;100.00
25130;BME280;13308;50.860;13.664;2023-02-19T07:46:20;96468.28;;;8.02;100.00
25130;BME280;13308;50.860;13.664;2023-02-19T07:48:46;96463.94;;;8.04;100.00
25130;BME280;13308;50.860;13.664;2023-02-19T07:51:14;96471.44;;;8.00;100.00
25130;BME280;13308;50.860;13.664;2023-02-19T07:53:43;96479.25;;;8.02;100.00
25130;BME280;13308;50.860;13.664;2023-02-19T07:56:10;96471.44;;;8.00;100.00
25130;BME280;13308;50.860;13.664;2023-02-19T07:58:36;96477.66;;;8.04;100.00
25130;BME280;13308;50.860;13.664;2023-02-19T08:01:17;96479.22;;;8.05;100.00
25130;BME280;13308;50.860;13.664;2023-02-19T08:03:43;96505.16;;;8.01;100.00
25130;BME280;13308;50.860;13.664;2023-02-19T08:06:09;96525.22;;;7.98;100.00
25130;BME280;13308;50.860;13.664;2023-02-19T08:08:35;96555.63;;;7.77;100.00
25130;BME280;13308;50.860;13.664;2023-02-19T08:11:03;96531.91;;;7.09;100.00
25130;BME280;13308;50.860;13.664;2023-02-19T08:13:49;96554.81;;;6.71;100.00
25130;BME280;13308;50.860;13.664;2023-02-19T08:16:15;96548.22;;;6.61;100.00
25130;BME280;13308;50.860;13.664;2023-02-19T08:18:43;96558.81;;;6.56;100.00
25130;BME280;13308;50.860;13.664;2023-02-19T08:21:09;96557.28;;;6.48;100.00
25130;BME280;13308;50.860;13.664;2023-02-19T08:23:34;96570.22;;;6.44;100.00
25130;BME280;13308;50.860;13.664;2023-02-19T08:26:00;96564.34;;;6.42;100.00
25130;BME280;13308;50.860;13.664;2023-02-19T08:28:26;96568.25;;;6.41;100.00
25130;BME280;13308;50.860;13.664;2023-02-19T08:30:52;96564.34;;;6.42;100.00
25130;BME280;13308;50.860;13.664;2023-02-19T08:33:19;96583.53;;;6.38;100.00
25130;BME280;13308;50.860;13.664;2023-02-19T08:35:46;96575.72;;;6.33;100.00
25130;BME280;13308;50.860;13.664;2023-02-19T08:38:12;96593.34;;;6.29;100.00
25130;BME280;13308;50.860;13.664;2023-02-19T08:40:38;96598.03;;;6.25;100.00
25130;BME280;13308;50.860;13.664;2023-02-19T08:43:06;96595.75;;;6.20;100.00
25130;BME280;13308;50.860;13.664;2023-02-19T08:45:32;96601.19;;;6.13;100.00
25130;BME280;13308;50.860;13.664;2023-02-19T08:47:58;96602.03;;;6.03;100.00
25130;BME280;13308;50.860;13.664;2023-02-19T08:50:24;96618.06;;;5.97;100.00
25130;BME280;13308;50.860;13.664;2023-02-19T08:52:49;96623.94;;;5.96;100.00
25130;BME280;13308;50.860;13.664;2023-02-19T08:55:15;96628.63;;;5.92;100.00
25130;BME280;13308;50.860;13.664;2023-02-19T08:57:40;96629.03;;;5.87;100.00
25130;BME280;13308;50.860;13.664;2023-02-19T09:00:06;96634.88;;;5.85;100.00
25130;BME280;13308;50.860;13.664;2023-02-19T09:02:33;96658.69;;;5.74;100.00
25130;BME280;13308;50.860;13.664;2023-02-19T09:04:58;96685.66;;;5.62;100.00
25130;BME280;13308;50.860;13.664;2023-02-19T09:07:24;96699.72;;;5.57;100.00
25130;BME280;13308;50.860;13.664;2023-02-19T09:09:49;96711.41;;;5.47;100.00
25130;BME280;13308;50.860;13.664;2023-02-19T09:12:14;96712.56;;;5.39;100.00
25130;BME280;13308;50.860;13.664;2023-02-19T09:14:40;96715.31;;;5.39;100.00
25130;BME280;13308;50.860;13.664;2023-02-19T09:17:07;96721.53;;;5.32;100.00
25130;BME280;13308;50.860;13.664;2023-02-19T09:19:32;96718.78;;;5.32;100.00
25130;BME280;13308;50.860;13.664;2023-02-19T09:21:58;96727.78;;;5.26;100.00
25130;BME280;13308;50.860;13.664;2023-02-19T09:24:24;96734.00;;;5.26;100.00
25130;BME280;13308;50.860;13.664;2023-02-19T09:26:50;96741.41;;;5.15;100.00
25130;BME280;13308;50.860;13.664;2023-02-19T09:29:16;96760.56;;;5.19;100.00
25130;BME280;13308;50.860;13.664;2023-02-19T09:31:42;96762.88;;;5.17;100.00
25130;BME280;13308;50.860;13.664;2023-02-19T09:34:07;96764.84;;;5.13;100.00
25130;BME280;13308;50.860;13.664;2023-02-19T09:36:33;96765.19;;;5.08;100.00
25130;BME280;13308;50.860;13.664;2023-02-19T09:38:59;96764.38;;;5.04;100.00
25130;BME280;13308;50.860;13.664;2023-02-19T09:41:49;96778.00;;;4.90;100.00
25130;BME280;13308;50.860;13.664;2023-02-19T09:44:24;96784.19;;;4.83;100.00
25130;BME280;13308;50.860;13.664;2023-02-19T09:46:52;96789.31;;;4.92;100.00
25130;BME280;13308;50.860;13.664;2023-02-19T09:49:35;96783.44;;;4.83;100.00
25130;BME280;13308;50.860;13.664;2023-02-19T09:52:15;96783.78;;;4.78;100.00
25130;BME280;13308;50.860;13.664;2023-02-19T09:54:44;96800.50;;;4.69;100.00
25130;BME280;13308;50.860;13.664;2023-02-19T09:57:15;96810.59;;;4.62;100.00
25130;BME280;13308;50.860;13.664;2023-02-19T09:59:48;96824.16;;;4.48;100.00
25130;BME280;13308;50.860;13.664;2023-02-19T10:02:22;96835.41;;;4.43;100.00
25130;BME280;13308;50.860;13.664;2023-02-19T10:04:49;96842.00;;;4.35;100.00
25130;BME280;13308;50.860;13.664;2023-02-19T10:07:20;96850.41;;;4.19;100.00
25130;BME280;13308;50.860;13.664;2023-02-19T10:09:51;96852.78;;;4.21;100.00
25130;BME280;13308;50.860;13.664;2023-02-19T10:12:23;96856.66;;;4.20;100.00
25130;BME280;13308;50.860;13.664;2023-02-19T10:14:51;96855.84;;;4.16;100.00
25130;BME280;13308;50.860;13.664;2023-02-19T10:17:24;96871.47;;;4.19;100.00
25130;BME280;13308;50.860;13.664;2023-02-19T10:19:51;96889.25;;;4.02;100.00
25130;BME280;13308;50.860;13.664;2023-02-19T10:22:17;96893.91;;;4.02;100.00
25130;BME280;13308;50.860;13.664;2023-02-19T10:24:43;96884.84;;;3.94;100.00
25130;BME280;13308;50.860;13.664;2023-02-19T10:27:13;96897.31;;;3.92;100.00
25130;BME280;13308;50.860;13.664;2023-02-19T10:29:39;96892.31;;;3.97;100.00
25130;BME280;13308;50.860;13.664;2023-02-19T10:32:21;96905.59;;;3.99;100.00
25130;BME280;13308;50.860;13.664;2023-02-19T10:35:12;96906.47;;;4.10;100.00
25130;BME280;13308;50.860;13.664;2023-02-19T10:37:46;96913.59;;;4.21;100.00
25130;BME280;13308;50.860;13.664;2023-02-19T10:40:24;96911.28;;;4.23;100.00
25130;BME280;13308;50.860;13.664;2023-02-19T10:42:59;96919.22;;;4.39;100.00
25130;BME280;13308;50.860;13.664;2023-02-19T10:45:40;96913.91;;;4.53;100.00
25130;BME280;13308;50.860;13.664;2023-02-19T10:48:21;96917.16;;;4.69;100.00
25130;BME280;13308;50.860;13.664;2023-02-19T10:50:51;96919.44;;;4.60;100.00
25130;BME280;13308;50.860;13.664;2023-02-19T10:53:23;96924.97;;;4.67;100.00
25130;BME280;13308;50.860;13.664;2023-02-19T10:56:08;96931.66;;;4.73;100.00
25130;BME280;13308;50.860;13.664;2023-02-19T10:58:34;96935.63;;;4.82;100.00
25130;BME280;13308;50.860;13.664;2023-02-19T11:01:19;96937.63;;;4.89;100.00
25130;BME280;13308;50.860;13.664;2023-02-19T11:03:49;96934.97;;;4.96;100.00
25130;BME280;13308;50.860;13.664;2023-02-19T11:06:20;96944.88;;;5.18;100.00
25130;BME280;13308;50.860;13.664;2023-02-19T11:08:52;96945.63;;;5.15;100.00
25130;BME280;13308;50.860;13.664;2023-02-19T11:11:24;96945.94;;;5.03;100.00
25130;BME280;13308;50.860;13.664;2023-02-19T11:13:50;96958.00;;;4.98;100.00
25130;BME280;13308;50.860;13.664;2023-02-19T11:16:15;96954.88;;;5.00;100.00
25130;BME280;13308;50.860;13.664;2023-02-19T11:18:41;96965.03;;;4.99;100.00
25130;BME280;13308;50.860;13.664;2023-02-19T11:21:25;96962.72;;;5.01;100.00
25130;BME280;13308;50.860;13.664;2023-02-19T11:23:53;96969.66;;;4.92;100.00
25130;BME280;13308;50.860;13.664;2023-02-19T11:26:22;96976.06;;;5.10;100.00
25130;BME280;13308;50.860;13.664;2023-02-19T11:28:59;96973.78;;;5.15;100.00
25130;BME280;13308;50.860;13.664;2023-02-19T11:31:27;96987.94;;;5.35;100.00
25130;BME280;13308;50.860;13.664;2023-02-19T11:34:21;96988.75;;;5.35;100.00
25130;BME280;13308;50.860;13.664;2023-02-19T11:37:13;96999.47;;;5.11;100.00
25130;BME280;13308;50.860;13.664;2023-02-19T11:39:43;96996.38;;;5.12;100.00
25130;BME280;13308;50.860;13.664;2023-02-19T11:42:22;97003.81;;;5.12;100.00
25130;BME280;13308;50.860;13.664;2023-02-19T11:45:17;96989.19;;;4.94;100.00
25130;BME280;13308;50.860;13.664;2023-02-19T11:50:51;97005.22;;;5.46;100.00
25130;BME280;13308;50.860;13.664;2023-02-19T11:53:27;97008.28;;;5.37;100.00
25130;BME280;13308;50.860;13.664;2023-02-19T12:01:45;97009.00;;;5.27;100.00
25130;BME280;13308;50.860;13.664;2023-02-19T12:07:24;97010.56;;;5.28;100.00
25130;BME280;13308;50.860;13.664;2023-02-19T12:10:10;97018.50;;;5.44;100.00
25130;BME280;13308;50.860;13.664;2023-02-19T12:13:14;97033.06;;;5.08;100.00
25130;BME280;13308;50.860;13.664;2023-02-19T12:16:05;97027.16;;;5.06;100.00
25130;BME280;13308;50.860;13.664;2023-02-19T12:21:38;97034.72;;;5.23;100.00
25130;BME280;13308;50.860;13.664;2023-02-19T12:27:23;97049.75;;;5.43;100.00
25130;BME280;13308;50.860;13.664;2023-02-19T12:33:29;97054.25;;;5.18;100.00
25130;BME280;13308;50.860;13.664;2023-02-19T12:36:16;97054.28;;;5.25;100.00
25130;BME280;13308;50.860;13.664;2023-02-19T12:39:00;97052.03;;;5.37;100.00
25130;BME280;13308;50.860;13.664;2023-02-19T12:41:38;97050.72;;;5.68;100.00
25130;BME280;13308;50.860;13.664;2023-02-19T12:44:18;97057.16;;;5.93;100.00
25130;BME280;13308;50.860;13.664;2023-02-19T12:46:52;97046.22;;;5.96;100.00
25130;BME280;13308;50.860;13.664;2023-02-19T12:49:27;97046.75;;;6.26;100.00
25130;BME280;13308;50.860;13.664;2023-02-19T12:52:05;97050.31;;;6.34;100.00
25130;BME280;13308;50.860;13.664;2023-02-19T12:54:40;97055.81;;;6.41;100.00
25130;BME280;13308;50.860;13.664;2023-02-19T13:02:09;97046.16;;;6.75;98.18
25130;BME280;13308;50.860;13.664;2023-02-19T13:05:05;97051.97;;;6.56;97.16
25130;BME280;13308;50.860;13.664;2023-02-19T13:07:44;97053.50;;;6.43;98.96
25130;BME280;13308;50.860;13.664;2023-02-19T13:10:25;97057.94;;;6.82;99.88
25130;BME280;13308;50.860;13.664;2023-02-19T13:12:52;97066.16;;;6.79;97.63
25130;BME280;13308;50.860;13.664;2023-02-19T13:15:33;97066.81;;;6.48;96.51
25130;BME280;13308;50.860;13.664;2023-02-19T13:18:02;97069.59;;;6.55;99.58
25130;BME280;13308;50.860;13.664;2023-02-19T13:20:41;97077.06;;;6.65;98.49
25130;BME280;13308;50.860;13.664;2023-02-19T13:23:12;97081.13;;;7.41;95.22
25130;BME280;13308;50.860;13.664;2023-02-19T13:29:15;97091.72;;;7.56;93.08
25130;BME280;13308;50.860;13.664;2023-02-19T13:37:12;97083.44;;;6.97;90.30
25130;BME280;13308;50.860;13.664;2023-02-19T13:39:45;97089.56;;;6.66;94.45
25130;BME280;13308;50.860;13.664;2023-02-19T13:42:25;97094.28;;;6.58;95.77
25130;BME280;13308;50.860;13.664;2023-02-19T13:44:51;97101.97;;;6.28;95.08
25130;BME280;13308;50.860;13.664;2023-02-19T13:47:57;97107.38;;;6.25;95.91
25130;BME280;13308;50.860;13.664;2023-02-19T13:50:31;97101.84;;;6.14;92.20
25130;BME280;13308;50.860;13.664;2023-02-19T13:52:58;97100.53;;;6.66;93.04
25130;BME280;13308;50.860;13.664;2023-02-19T13:55:44;97108.34;;;6.57;93.41
25130;BME280;13308;50.860;13.664;2023-02-19T14:01:11;97106.88;;;6.02;95.90
25130;BME280;13308;50.860;13.664;2023-02-19T14:06:05;97106.56;;;6.10;94.81
25130;BME280;13308;50.860;13.664;2023-02-19T14:11:18;97110.38;;;5.52;94.54
25130;BME280;13308;50.860;13.664;2023-02-19T14:14:02;97107.59;;;5.45;95.99
25130;BME280;13308;50.860;13.664;2023-02-19T14:18:59;97120.03;;;5.39;96.88
25130;BME280;13308;50.860;13.664;2023-02-19T14:21:34;97129.94;;;5.54;97.62
25130;BME280;13308;50.860;13.664;2023-02-19T14:24:01;97131.41;;;5.88;94.82
25130;BME280;13308;50.860;13.664;2023-02-19T14:26:30;97141.75;;;5.65;92.07
25130;BME280;13308;50.860;13.664;2023-02-19T14:28:57;97136.84;;;5.41;93.62
25130;BME280;13308;50.860;13.664;2023-02-19T14:31:29;97133.72;;;5.39;94.47
25130;BME280;13308;50.860;13.664;2023-02-19T14:33:58;97145.19;;;5.15;94.29
25130;BME280;13308;50.860;13.664;2023-02-19T14:36:46;97148.88;;;4.96;95.33
25130;BME280;13308;50.860;13.664;2023-02-19T14:39:21;97146.84;;;4.86;96.65
25130;BME280;13308;50.860;13.664;2023-02-19T14:41:51;97142.63;;;4.63;97.17
25130;BME280;13308;50.860;13.664;2023-02-19T14:44:20;97139.47;;;4.57;97.68
25130;BME280;13308;50.860;13.664;2023-02-19T14:46:59;97151.03;;;4.47;98.17
25130;BME280;13308;50.860;13.664;2023-02-19T14:49:43;97150.13;;;4.40;98.51
25130;BME280;13308;50.860;13.664;2023-02-19T14:52:16;97151.63;;;4.34;97.51
25130;BME280;13308;50.860;13.664;2023-02-19T14:54:52;97155.41;;;4.26;97.94
25130;BME280;13308;50.860;13.664;2023-02-19T14:57:21;97163.50;;;4.19;98.21
25130;BME280;13308;50.860;13.664;2023-02-19T14:59:56;97164.56;;;4.11;98.43
25130;BME280;13308;50.860;13.664;2023-02-19T15:02:27;97177.28;;;4.00;99.27
25130;BME280;13308;50.860;13.664;2023-02-19T15:04:53;97178.28;;;3.92;99.49
25130;BME280;13308;50.860;13.664;2023-02-19T15:07:27;97188.53;;;3.98;99.00
25130;BME280;13308;50.860;13.664;2023-02-19T15:09:56;97189.66;;;4.20;98.51
25130;BME280;13308;50.860;13.664;2023-02-19T15:12:50;97193.09;;;4.43;98.15
25130;BME280;13308;50.860;13.664;2023-02-19T15:15:30;97187.13;;;4.34;100.00
25130;BME280;13308;50.860;13.664;2023-02-19T15:17:58;97185.53;;;4.33;98.89
25130;BME280;13308;50.860;13.664;2023-02-19T15:20:27;97188.28;;;4.33;100.00
25130;BME280;13308;50.860;13.664;2023-02-19T15:22:53;97186.47;;;4.14;100.00
25130;BME280;13308;50.860;13.664;2023-02-19T15:25:21;97192.84;;;4.25;100.00
25130;BME280;13308;50.860;13.664;2023-02-19T15:27:47;97196.69;;;4.21;100.00
25130;BME280;13308;50.860;13.664;2023-02-19T15:30:22;97186.47;;;4.14;100.00
25130;BME280;13308;50.860;13.664;2023-02-19T15:32:53;97179.00;;;4.11;100.00
25130;BME280;13308;50.860;13.664;2023-02-19T15:35:20;97195.72;;;4.10;100.00
25130;BME280;13308;50.860;13.664;2023-02-19T15:37:47;97185.97;;;4.09;100.00
25130;BME280;13308;50.860;13.664;2023-02-19T15:40:13;97196.53;;;4.10;100.00
25130;BME280;13308;50.860;13.664;2023-02-19T15:42:39;97190.91;;;4.00;100.00
25130;BME280;13308;50.860;13.664;2023-02-19T15:45:23;97192.13;;;4.02;100.00
25130;BME280;13308;50.860;13.664;2023-02-19T15:48:18;97194.81;;;3.99;100.00
25130;BME280;13308;50.860;13.664;2023-02-19T15:50:52;97197.09;;;3.97;100.00
25130;BME280;13308;50.860;13.664;2023-02-19T15:53:24;97202.53;;;3.97;100.00
25130;BME280;13308;50.860;13.664;2023-02-19T15:55:59;97207.19;;;3.93;100.00
25130;BME280;13308;50.860;13.664;2023-02-19T16:03:39;97209.44;;;3.65;100.00
25130;BME280;13308;50.860;13.664;2023-02-19T16:06:05;97204.28;;;3.60;100.00
25130;BME280;13308;50.860;13.664;2023-02-19T16:08:36;97208.16;;;3.59;100.00
25130;BME280;13308;50.860;13.664;2023-02-19T16:13:47;97207.59;;;3.50;100.00
25130;BME280;13308;50.860;13.664;2023-02-19T16:16:19;97215.00;;;3.49;100.00
25130;BME280;13308;50.860;13.664;2023-02-19T16:18:49;97201.72;;;3.48;100.00
25130;BME280;13308;50.860;13.664;2023-02-19T16:21:19;97208.34;;;3.47;100.00
25130;BME280;13308;50.860;13.664;2023-02-19T16:23:47;97205.91;;;3.42;100.00
25130;BME280;13308;50.860;13.664;2023-02-19T16:26:14;97212.38;;;3.34;100.00
25130;BME280;13308;50.860;13.664;2023-02-19T16:28:40;97202.94;;;3.28;100.00
25130;BME280;13308;50.860;13.664;2023-02-19T16:31:08;97212.09;;;3.20;100.00
25130;BME280;13308;50.860;13.664;2023-02-19T16:33:39;97210.75;;;3.10;100.00
25130;BME280;13308;50.860;13.664;2023-02-19T16:36:38;97223.91;;;3.05;100.00
25130;BME280;13308;50.860;13.664;2023-02-19T16:46:48;97252.00;;;2.90;100.00
25130;BME280;13308;50.860;13.664;2023-02-19T16:49:14;97256.28;;;2.91;100.00
25130;BME280;13308;50.860;13.664;2023-02-19T16:51:39;97264.19;;;2.96;100.00
25130;BME280;13308;50.860;13.664;2023-02-19T16:54:05;97262.19;;;2.93;100.00
25130;BME280;13308;50.860;13.664;2023-02-19T16:56:30;97266.69;;;2.85;100.00
25130;BME280;13308;50.860;13.664;2023-02-19T16:58:56;97274.50;;;2.87;100.00
25130;BME280;13308;50.860;13.664;2023-02-19T17:01:22;97276.63;;;2.78;100.00
25130;BME280;13308;50.860;13.664;2023-02-19T17:03:48;97279.81;;;2.80;100.00
25130;BME280;13308;50.860;13.664;2023-02-19T17:06:14;97275.00;;;2.73;100.00
25130;BME280;13308;50.860;13.664;2023-02-19T17:08:41;97286.50;;;2.67;100.00
25130;BME280;13308;50.860;13.664;2023-02-19T17:11:14;97286.50;;;2.67;100.00
25130;BME280;13308;50.860;13.664;2023-02-19T17:13:41;97293.38;;;2.61;100.00
25130;BME280;13308;50.860;13.664;2023-02-19T17:16:10;97303.41;;;2.57;100.00
25130;BME280;13308;50.860;13.664;2023-02-19T17:18:40;97311.84;;;2.52;100.00
25130;BME280;13308;50.860;13.664;2023-02-19T17:21:19;97329.31;;;2.51;100.00
25130;BME280;13308;50.860;13.664;2023-02-19T17:23:45;97329.75;;;2.53;100.00
25130;BME280;13308;50.860;13.664;2023-02-19T17:26:13;97321.16;;;2.51;100.00
25130;BME280;13308;50.860;13.664;2023-02-19T17:28:39;97305.53;;;2.48;100.00
25130;BME280;13308;50.860;13.664;2023-02-19T17:31:04;97320.69;;;2.49;100.00
25130;BME280;13308;50.860;13.664;2023-02-19T17:33:29;97319.56;;;2.50;100.00
25130;BME280;13308;50.860;13.664;2023-02-19T17:35:54;97324.72;;;2.55;100.00
25130;BME280;13308;50.860;13.664;2023-02-19T17:38:20;97330.19;;;2.55;100.00
25130;BME280;13308;50.860;13.664;2023-02-19T17:40:45;97333.44;;;2.60;100.00
25130;BME280;13308;50.860;13.664;2023-02-19T17:43:10;97336.78;;;2.54;100.00
25130;BME280;13308;50.860;13.664;2023-02-19T17:45:36;97337.78;;;2.30;100.00
25130;BME280;13308;50.860;13.664;2023-02-19T17:48:01;97334.88;;;2.39;100.00
25130;BME280;13308;50.860;13.664;2023-02-19T17:50:29;97344.78;;;2.31;100.00
25130;BME280;13308;50.860;13.664;2023-02-19T17:52:55;97339.84;;;2.37;100.00
25130;BME280;13308;50.860;13.664;2023-02-19T17:55:20;97348.91;;;2.41;100.00
25130;BME280;13308;50.860;13.664;2023-02-19T17:57:47;97347.25;;;2.36;100.00
25130;BME280;13308;50.860;13.664;2023-02-19T18:00:15;97354.19;;;2.34;100.00
25130;BME280;13308;50.860;13.664;2023-02-19T18:02:41;97361.13;;;2.31;100.00
25130;BME280;13308;50.860;13.664;2023-02-19T18:05:06;97362.84;;;2.39;100.00
25130;BME280;13308;50.860;13.664;2023-02-19T18:07:32;97365.25;;;2.41;100.00
25130;BME280;13308;50.860;13.664;2023-02-19T18:09:57;97373.56;;;2.48;100.00
25130;BME280;13308;50.860;13.664;2023-02-19T18:12:22;97374.19;;;2.57;100.00
25130;BME280;13308;50.860;13.664;2023-02-19T18:14:53;97358.28;;;2.59;100.00
25130;BME280;13308;50.860;13.664;2023-02-19T18:17:21;97379.88;;;2.67;100.00
25130;BME280;13308;50.860;13.664;2023-02-19T18:19:46;97367.16;;;2.56;100.00
25130;BME280;13308;50.860;13.664;2023-02-19T18:22:12;97372.69;;;2.59;100.00
25130;BME280;13308;50.860;13.664;2023-02-19T18:24:37;97381.22;;;2.58;100.00
25130;BME280;13308;50.860;13.664;2023-02-19T18:27:02;97384.88;;;2.50;100.00
25130;BME280;13308;50.860;13.664;2023-02-19T18:29:28;97391.03;;;2.47;100.00
25130;BME280;13308;50.860;13.664;2023-02-19T18:31:55;97375.94;;;2.49;100.00
25130;BME280;13308;50.860;13.664;2023-02-19T18:34:20;97385.53;;;2.43;100.00
25130;BME280;13308;50.860;13.664;2023-02-19T18:36:47;97378.06;;;2.56;100.00
25130;BME280;13308;50.860;13.664;2023-02-19T18:39:13;97383.84;;;2.54;100.00
25130;BME280;13308;50.860;13.664;2023-02-19T18:41:38;97388.06;;;2.52;100.00
25130;BME280;13308;50.860;13.664;2023-02-19T18:44:04;97398.16;;;2.51;100.00
25130;BME280;13308;50.860;13.664;2023-02-19T18:46:29;97400.78;;;2.48;100.00
25130;BME280;13308;50.860;13.664;2023-02-19T18:48:55;97393.94;;;2.38;100.00
25130;BME280;13308;50.860;13.664;2023-02-19T18:51:21;97395.44;;;2.36;100.00
25130;BME280;13308;50.860;13.664;2023-02-19T18:53:47;97395.34;;;2.32;100.00
25130;BME280;13308;50.860;13.664;2023-02-19T18:56:13;97401.31;;;2.38;100.00
25130;BME280;13308;50.860;13.664;2023-02-19T18:58:38;97394.38;;;2.25;100.00
25130;BME280;13308;50.860;13.664;2023-02-19T19:01:04;97390.34;;;2.19;100.00
25130;BME280;13308;50.860;13.664;2023-02-19T19:03:29;97396.50;;;2.16;100.00
25130;BME280;13308;50.860;13.664;2023-02-19T19:05:55;97402.44;;;2.06;100.00
25130;BME280;13308;50.860;13.664;2023-02-19T19:08:20;97399.72;;;2.06;100.00
25130;BME280;13308;50.860;13.664;2023-02-19T19:10:46;97398.94;;;2.05;100.00
25130;BME280;13308;50.860;13.664;2023-02-19T19:13:11;97399.91;;;2.28;100.00
25130;BME280;13308;50.860;13.664;2023-02-19T19:15:36;97404.03;;;2.22;100.00
25130;BME280;13308;50.860;13.664;2023-02-19T19:18:05;97395.44;;;2.20;100.00
25130;BME280;13308;50.860;13.664;2023-02-19T19:20:31;97396.03;;;2.14;100.00
25130;BME280;13308;50.860;13.664;2023-02-19T19:22:56;97401.59;;;2.17;100.00
25130;BME280;13308;50.860;13.664;2023-02-19T19:25:21;97403.06;;;2.15;100.00
25130;BME280;13308;50.860;13.664;2023-02-19T19:27:47;97404.19;;;2.14;100.00
